首页
METAR-TAF:

METAR-TAF

机场 :

努瓦克肖特国际机场

努瓦克肖特, 毛里塔尼亚

纬度: 18-18-36N, 经度: 015-58-11W, 海拔: 3米

当前天气观测

该预报发布于28分钟前的08:30 UTC
风速4节,风向
温度 29°C
湿度 79%
气压 1012 hPa
能見度: 6000

METAR: GQNO 190830Z 17004KT 6000 NSC 29/25 Q1012 NOSIG

时间: 08:58 (08:58 UTC)

预报

该预报发布于3小时和58分钟前的05:00 UTC
预报有效从19日的 06点(UTC)到 20日的 12点(UTC)
风速8节,风向西北
能見度: 8000
成为
从 19日的 08点(UTC)到 19日的 11点(UTC)
风速10节,风向西转西南
几率 40% :
短暂存在
从 20日的 00点(UTC)到 20日的 12点(UTC)
风速15节,风向,有时为25节阵风
能見度: 4500
多云层高于1300英尺
少量云层高于3000英尺, 积雨云.
雷暴, 雨

TAF: GQNO 190500Z 1906/2012 31008KT 8000 NSC BECMG 1908/1911 25010KT PROB40 TEMPO 2000/2012 10015G25KT 4500 TSRA BKN013 FEW030CB

超过4000个机场的气象观测和天气预报(METAR&TAF报告)。

可查询的气象台以黄色和红色小点在地图上表示。

将鼠标移到小点上方,可查看气象台名称。

然后点击查看天气观测和预报。

如需切换地图:点击带黑十字的绿色按钮放大地图;点击带横线的绿色按钮缩小地图;或者点击绿色箭头查看邻近地区的地图。


METAR-TAF: